Time;durP1;ratioP1;P1;durP2;ratioP2;P2;SDS_P1;SDS_P2;PMS_P1;PMS_P2;Temp;Humidity;BMP_temperature;BMP_pressure;BME280_temperature;BME280_humidity;BME280_pressure;Samples;Min_cycle;Max_cycle;Signal;HPM_P1;HPM_P2
2023/06/23 00:15:00;;;;;;;;;;;;;;;26.68;55.39;100145.34;41737645;28;20409;-80
2023/06/23 00:35:00;;;;;;;;;;;;;;;26.60;55.79;100151.47;41745430;28;20020;-79
2023/06/23 00:55:02;;;;;;;;;;;;;;;26.49;56.08;100135.84;41738488;28;19935;-80
2023/06/23 01:15:11;;;;;;;;;;;;;;;26.42;55.67;100122.34;41740372;28;20038;-81
2023/06/23 01:35:20;;;;;;;;;;;;;;;26.32;55.33;100119.00;41758889;28;19935;-81
2023/06/23 01:55:22;;;;;;;;;;;;;;;26.28;55.75;100121.16;41755720;28;19928;-80
2023/06/23 02:15:23;;;;;;;;;;;;;;;26.18;56.44;100153.13;41754143;28;19928;-80
2023/06/23 02:35:26;;;;;;;;;;;;;;;26.21;56.28;100131.56;41740144;28;19925;-80
2023/06/23 02:55:27;;;;;;;;;;;;;;;26.17;56.59;100132.88;41775473;28;19944;-79
2023/06/23 03:15:28;;;;;;;;;;;;;;;26.08;56.86;100133.81;41785487;28;19936;-79
2023/06/23 03:35:31;;;;;;;;;;;;;;;26.00;57.10;100157.59;41788494;28;19931;-78
2023/06/23 03:55:35;;;;;;;;;;;;;;;25.96;57.54;100164.22;41763603;28;19967;-77
2023/06/23 04:15:40;;;;;;;;;;;;;;;25.94;57.77;100182.09;41756188;28;19912;-77
2023/06/23 04:35:40;;;;;;;;;;;;;;;26.02;57.79;100168.91;41738695;28;20103;-82
2023/06/23 04:55:42;;;;;;;;;;;;;;;26.02;56.44;100159.13;41706483;28;19929;-79
2023/06/23 05:15:44;;;;;;;;;;;;;;;26.08;55.94;100156.88;41697323;28;20015;-76
2023/06/23 05:35:45;;;;;;;;;;;;;;;26.04;56.09;100166.94;41745248;28;19925;-77
2023/06/23 05:56:04;;;;;;;;;;;;;;;26.08;56.35;100149.72;41755952;28;19975;-82
2023/06/23 06:16:05;;;;;;;;;;;;;;;26.15;55.98;100131.38;41749986;28;19925;-79
2023/06/23 06:36:07;;;;;;;;;;;;;;;26.19;56.85;100104.34;41774555;28;20374;-76
2023/06/23 06:56:08;;;;;;;;;;;;;;;26.27;56.74;100097.41;41774862;28;19940;-76
2023/06/23 07:16:08;;;;;;;;;;;;;;;26.36;56.87;100099.94;41737245;28;19929;-80
2023/06/23 07:36:08;;;;;;;;;;;;;;;26.49;56.71;100104.78;41717985;28;20467;-80
2023/06/23 07:56:12;;;;;;;;;;;;;;;26.59;57.01;100086.06;41712039;28;19925;-81
2023/06/23 08:16:13;;;;;;;;;;;;;;;26.76;57.59;100079.00;41726692;28;19933;-80
2023/06/23 08:36:13;;;;;;;;;;;;;;;26.83;57.13;100079.16;41735039;28;19925;-80
2023/06/23 08:56:14;;;;;;;;;;;;;;;26.88;57.64;100084.84;41742529;28;20340;-78
2023/06/23 09:16:15;;;;;;;;;;;;;;;26.94;57.66;100084.19;41743273;28;19925;-81
2023/06/23 09:36:15;;;;;;;;;;;;;;;26.99;57.99;100081.84;41711718;28;19932;-81
2023/06/23 09:56:17;;;;;;;;;;;;;;;27.04;57.88;100091.16;41712786;28;19928;-83
2023/06/23 10:16:19;;;;;;;;;;;;;;;27.08;57.68;100092.50;41692736;28;19921;-78
2023/06/23 10:36:20;;;;;;;;;;;;;;;27.16;57.82;100080.03;41711604;28;19929;-80
2023/06/23 10:56:29;;;;;;;;;;;;;;;27.26;57.65;100071.06;41714940;28;20403;-78
2023/06/23 11:16:39;;;;;;;;;;;;;;;27.36;57.58;100041.66;41784683;28;20393;-79
2023/06/23 11:36:39;;;;;;;;;;;;;;;27.47;57.85;100014.75;41789022;28;19925;-78
2023/06/23 11:56:41;;;;;;;;;;;;;;;27.57;57.79;100010.03;41775196;28;19924;-77
2023/06/23 12:16:42;;;;;;;;;;;;;;;27.74;59.20;99983.41;41729590;28;19933;-78
2023/06/23 12:36:43;;;;;;;;;;;;;;;27.87;59.58;99951.75;41698929;28;19925;-76
2023/06/23 12:56:44;;;;;;;;;;;;;;;27.97;60.31;99951.53;41740633;28;19921;-77
2023/06/23 13:16:44;;;;;;;;;;;;;;;28.04;60.12;99963.16;41707998;28;19932;-78
2023/06/23 13:36:46;;;;;;;;;;;;;;;28.22;61.68;99952.28;41723464;28;19925;-84
2023/06/23 13:56:47;;;;;;;;;;;;;;;28.35;61.58;99969.50;41699330;28;19964;-82
2023/06/23 14:16:47;;;;;;;;;;;;;;;28.33;59.92;99974.16;41683945;28;19932;-76
2023/06/23 14:36:49;;;;;;;;;;;;;;;28.33;57.59;99975.00;41732012;28;19984;-80
2023/06/23 14:56:49;;;;;;;;;;;;;;;28.35;55.89;99946.34;41740042;28;20031;-86
2023/06/23 15:16:50;;;;;;;;;;;;;;;28.38;53.74;99918.53;41719484;28;19939;-79
2023/06/23 15:36:51;;;;;;;;;;;;;;;28.40;52.66;99930.66;41719297;28;19932;-73
2023/06/23 15:56:51;;;;;;;;;;;;;;;28.38;50.97;99940.69;41730354;28;19929;-79
2023/06/23 16:16:53;;;;;;;;;;;;;;;28.29;48.54;99949.72;41713732;28;20248;-79
2023/06/23 16:36:54;;;;;;;;;;;;;;;28.25;46.00;99988.34;41733739;28;19932;-77
2023/06/23 16:56:54;;;;;;;;;;;;;;;28.13;46.73;100003.06;41713707;28;19933;-79
2023/06/23 17:16:54;;;;;;;;;;;;;;;28.10;46.01;100062.81;41714790;28;19964;-75
2023/06/23 17:36:55;;;;;;;;;;;;;;;27.60;45.17;100101.97;41722216;28;20842;-77
2023/06/23 17:56:57;;;;;;;;;;;;;;;27.14;45.00;100090.00;41706000;28;20331;-84
2023/06/23 18:16:58;;;;;;;;;;;;;;;27.00;44.04;100064.91;41719091;28;20403;-79
2023/06/23 18:36:58;;;;;;;;;;;;;;;26.78;43.26;100094.78;41689578;28;19924;-76
2023/06/23 18:56:58;;;;;;;;;;;;;;;26.56;43.43;100197.91;41697805;28;20382;-75
2023/06/23 19:16:59;;;;;;;;;;;;;;;26.21;42.83;100237.72;41723974;28;20507;-78
2023/06/23 19:37:00;;;;;;;;;;;;;;;26.67;43.69;100281.78;41726168;28;19929;-78
2023/06/23 19:57:00;;;;;;;;;;;;;;;26.83;44.79;100445.75;41745767;28;19947;-77
2023/06/23 20:17:00;;;;;;;;;;;;;;;26.91;45.89;100530.84;41721871;28;19971;-78
2023/06/23 20:37:02;;;;;;;;;;;;;;;26.98;46.54;100517.81;41739380;28;19951;-79
2023/06/23 20:57:02;;;;;;;;;;;;;;;27.01;47.37;100488.25;41732311;28;20015;-80
2023/06/23 21:17:03;;;;;;;;;;;;;;;27.02;48.58;100361.53;41737562;28;20338;-82
2023/06/23 21:37:05;;;;;;;;;;;;;;;27.03;48.22;100227.69;41721547;28;19932;-84
2023/06/23 21:57:06;;;;;;;;;;;;;;;27.04;48.92;100150.47;41740292;28;19949;-82
2023/06/23 22:17:06;;;;;;;;;;;;;;;27.02;49.11;100317.19;41734794;28;19929;-81
2023/06/23 22:37:06;;;;;;;;;;;;;;;27.00;49.81;100386.44;41717761;28;19925;-81
2023/06/23 22:57:07;;;;;;;;;;;;;;;27.01;50.07;100352.72;41750521;28;20815;-79
2023/06/23 23:17:08;;;;;;;;;;;;;;;27.00;50.07;100367.00;41784493;28;19925;-83
2023/06/23 23:37:08;;;;;;;;;;;;;;;26.96;50.01;100390.38;41787715;28;19929;-83
2023/06/23 23:57:08;;;;;;;;;;;;;;;26.97;50.14;100399.22;41770826;28;20342;-77
